Accueil
METAR-TAF:

METAR-TAF

Aéroports :

Aéroport international de Fresno Yosemite

Fresno, Californie, États-Unis

latitude: 36-46-48N, longitude: 119-43-10W, altitude: 101 m

Observation

Le bulletin a été fait il y a 15 minutes, à 00:53 UTC
Vent calme
Température 23°C
Humidité 31%
Pression 1017 hPa
Visibilité: 11.3 km
Quelques nuages à une hauteur de 15000 ft
Nuages épars à une hauteur de 20000 ft
Nuages fragmentés à une hauteur de 25000 ft

METAR: KFAT 120053Z 00000KT 7SM FEW150 SCT200 BKN250 23/05 A3002 RMK AO2 SLP164 T02330050

Heure: 17:08 (01:08 UTC)

Prévision

Le bulletin a été fait il y a 1 heure et 48 minutes, à 23:20 UTC
Prévision valable du 12 à 00 UTC au 12 à 24 UTC
Vent 3 kt de direction variable
Visibilité: 9.7 km
Nuages épars à une hauteur de 20000 ft
brume sèche

TAF: KFAT 112320Z 1200/1224 VRB03KT 6SM HZ SCT200

Observations et prévisions météorologiques de plus de 4000 aéroports (messages METAR et TAF).

Les stations disponibles sont représentées par des disques jaunes et rouges sur la carte.

Passer la souris dessus pour voir le nom de la station.

Cliquer dessus pour voir les observations et prévisions météorologiques.

Pour changer de carte: cliquez sur les boutons verts avec une croix noire pour zoomer, sur le bouton vert avec un tiret pour effectuer un zoom arrière, ou sur les flèches vertes pour les cartes adjacentes.


METAR-TAF: